CheckWX is a tool to help pilots better visualize weather data.  It is not intended as a substitute for an official pre-flight weather briefing.

05:53:01 UTC

KQEL METAR
Gapyong
Gapyong, South Korea
Current

13 mins ago

KQEL 270540Z AUTO 24001KT / // OVC003 18/18 A2959 RMK A02 TSNO
Observed
May-27 @ 05:40 UTC
Wind
  • 240° at 1 KTS
Visibility
Cloud Levels
  • Overcast at 300' AGL
Temperature
18°C / 64°F
Dewpoint
18°C / 64°F
Humidity
100%
Altimeter
29.59" Hg
Pressure
1002.02 hPa
Previous

23 mins ago

KQEL 270530Z AUTO 00000KT / // OVC003 18/18 A2960 RMK A02 TSNO
Observed
May-27 @ 05:30 UTC
Visibility
Cloud Levels
  • Overcast at 300' AGL
Temperature
18°C / 64°F
Dewpoint
18°C / 64°F
Humidity
100%
Altimeter
29.6" Hg
Pressure
1002.42 hPa
Previous

33 mins ago

KQEL 270520Z AUTO 00000KT / // OVC003 18/18 A2960 RMK A02 TSNO
Observed
May-27 @ 05:20 UTC
Visibility
Cloud Levels
  • Overcast at 300' AGL
Temperature
18°C / 64°F
Dewpoint
18°C / 64°F
Humidity
100%
Altimeter
29.6" Hg
Pressure
1002.42 hPa